createdAt,value
2018-04-09T00:00:43.608Z,1001.35
2018-04-09T00:01:44.991Z,1001.35
2018-04-09T00:02:46.371Z,1001.36
2018-04-09T00:03:47.743Z,1001.32
2018-04-09T00:04:49.121Z,1001.30
2018-04-09T00:05:50.508Z,1001.26
2018-04-09T00:06:51.895Z,1001.25
2018-04-09T00:07:53.273Z,1001.23
2018-04-09T00:08:54.659Z,1001.22
2018-04-09T00:09:56.031Z,1001.23
2018-04-09T00:10:57.411Z,1001.15
2018-04-09T00:11:58.789Z,1001.15
2018-04-09T00:13:00.168Z,1001.18
2018-04-09T00:14:01.550Z,1001.16
2018-04-09T00:15:02.929Z,1001.15
2018-04-09T00:16:04.315Z,1001.18
2018-04-09T00:17:05.696Z,1001.22
2018-04-09T00:18:07.078Z,1001.20
2018-04-09T00:19:08.455Z,1001.18
2018-04-09T00:20:10.356Z,1001.18
2018-04-09T00:21:11.740Z,1001.17
2018-04-09T00:22:13.119Z,1001.17
2018-04-09T00:23:14.506Z,1001.16
2018-04-09T00:24:15.879Z,1001.16
2018-04-09T00:25:17.266Z,1001.11
2018-04-09T00:26:18.640Z,1001.10
2018-04-09T00:27:20.028Z,1001.11
2018-04-09T00:28:21.402Z,1001.06
2018-04-09T00:29:22.782Z,1001.10
2018-04-09T00:30:24.166Z,1001.07
2018-04-09T00:31:25.555Z,1001.02
2018-04-09T00:32:26.925Z,1001.05
2018-04-09T00:33:28.317Z,1001.06
2018-04-09T00:34:29.693Z,1001.03
2018-04-09T00:35:31.080Z,1001.03
2018-04-09T00:36:32.463Z,1001.02
2018-04-09T00:37:33.846Z,1000.98
2018-04-09T00:38:35.227Z,1000.97
2018-04-09T00:39:36.609Z,1001.00
2018-04-09T00:40:37.995Z,1000.97
2018-04-09T00:41:39.374Z,1000.97
2018-04-09T00:42:40.754Z,1000.97
2018-04-09T00:43:42.135Z,1000.97
2018-04-09T00:44:43.514Z,1001.00
2018-04-09T00:45:44.906Z,1000.99
2018-04-09T00:46:46.274Z,1001.02
2018-04-09T00:47:47.656Z,1001.02
2018-04-09T00:48:49.032Z,1001.00
2018-04-09T00:49:50.412Z,1001.03
2018-04-09T00:50:51.801Z,1000.98
2018-04-09T00:51:53.192Z,1000.95
2018-04-09T00:52:54.574Z,1000.87
2018-04-09T00:53:55.952Z,1000.87
2018-04-09T00:54:57.338Z,1000.87
2018-04-09T00:55:58.708Z,1000.83
2018-04-09T00:57:00.093Z,1000.81
2018-04-09T00:58:01.467Z,1000.78
2018-04-09T00:59:02.859Z,1000.76
2018-04-09T01:00:04.225Z,1000.72
2018-04-09T01:01:05.616Z,1000.73
2018-04-09T01:02:06.992Z,1000.74
2018-04-09T01:03:08.370Z,1000.75
2018-04-09T01:04:09.760Z,1000.80
2018-04-09T01:05:11.133Z,1000.81
2018-04-09T01:06:12.515Z,1000.80
2018-04-09T01:07:14.851Z,1000.82
2018-04-09T01:08:16.225Z,1000.85
2018-04-09T01:09:17.609Z,1000.87
2018-04-09T01:10:18.987Z,1000.90
2018-04-09T01:11:20.373Z,1000.91
2018-04-09T01:12:21.747Z,1000.92
2018-04-09T01:13:23.131Z,1000.91
2018-04-09T01:14:24.518Z,1000.91
2018-04-09T01:15:25.888Z,1000.92
2018-04-09T01:16:27.270Z,1000.90
2018-04-09T01:17:28.650Z,1000.89
2018-04-09T01:18:30.034Z,1000.95
2018-04-09T01:19:31.418Z,1000.91
2018-04-09T01:20:32.800Z,1000.92
2018-04-09T01:21:34.172Z,1000.88
2018-04-09T01:22:35.559Z,1000.90
2018-04-09T01:23:36.934Z,1000.88
2018-04-09T01:24:38.316Z,1000.91
2018-04-09T01:25:39.691Z,1000.87
2018-04-09T01:26:41.077Z,1000.89
2018-04-09T01:27:42.460Z,1000.90
2018-04-09T01:28:43.837Z,1000.87
2018-04-09T01:29:45.213Z,1000.89
2018-04-09T01:30:46.590Z,1000.87
2018-04-09T01:31:47.974Z,1000.84
2018-04-09T01:32:50.050Z,1000.79
2018-04-09T01:33:51.423Z,1000.82
2018-04-09T01:34:52.801Z,1000.79
2018-04-09T01:35:54.174Z,1000.79
2018-04-09T01:36:55.558Z,1000.81
2018-04-09T01:37:56.927Z,1000.80
2018-04-09T01:38:58.310Z,1000.83
2018-04-09T01:39:59.688Z,1000.84
2018-04-09T01:41:01.629Z,1000.82
2018-04-09T01:42:03.010Z,1000.84
2018-04-09T01:43:04.397Z,1000.82
2018-04-09T01:44:05.776Z,1000.85
2018-04-09T01:45:07.159Z,1000.84
2018-04-09T01:46:08.542Z,1000.82
2018-04-09T01:47:09.932Z,1000.83
2018-04-09T01:48:12.006Z,1000.82
2018-04-09T01:49:13.382Z,1000.82
2018-04-09T01:50:14.768Z,1000.79
2018-04-09T01:51:16.148Z,1000.81
2018-04-09T01:52:17.523Z,1000.82
2018-04-09T01:53:18.893Z,1000.81
2018-04-09T01:54:20.275Z,1000.84
2018-04-09T01:55:21.664Z,1000.82
2018-04-09T01:56:23.032Z,1000.79
2018-04-09T01:57:24.414Z,1000.84
2018-04-09T01:58:25.785Z,1000.79
2018-04-09T01:59:27.165Z,1000.74
2018-04-09T02:00:28.543Z,1000.76
2018-04-09T02:01:30.576Z,1000.74
2018-04-09T02:02:31.957Z,1000.73
2018-04-09T02:03:33.331Z,1000.72
2018-04-09T02:04:34.703Z,1000.76
2018-04-09T02:05:36.083Z,1000.74
2018-04-09T02:06:37.460Z,1000.71
2018-04-09T02:07:38.839Z,1000.72
2018-04-09T02:08:40.220Z,1000.74
2018-04-09T02:09:41.605Z,1000.73
2018-04-09T02:10:42.989Z,1000.70
2018-04-09T02:11:44.357Z,1000.71
2018-04-09T02:12:45.746Z,1000.73
2018-04-09T02:13:47.120Z,1000.71
2018-04-09T02:14:48.504Z,1000.73
2018-04-09T02:15:49.886Z,1000.71
2018-04-09T02:16:51.256Z,1000.72
2018-04-09T02:17:52.637Z,1000.71
2018-04-09T02:18:54.020Z,1000.71
2018-04-09T02:19:55.397Z,1000.68
2018-04-09T02:20:57.563Z,1000.69
2018-04-09T02:21:58.944Z,1000.66
2018-04-09T02:23:00.328Z,1000.66
2018-04-09T02:24:01.709Z,1000.67
2018-04-09T02:25:03.087Z,1000.70
2018-04-09T02:26:04.471Z,1000.69
2018-04-09T02:27:05.850Z,1000.68
2018-04-09T02:28:07.221Z,1000.63
2018-04-09T02:29:08.604Z,1000.61
2018-04-09T02:30:09.974Z,1000.61
2018-04-09T02:31:11.356Z,1000.56
2018-04-09T02:32:13.643Z,1000.59
2018-04-09T02:33:15.026Z,1000.59
2018-04-09T02:34:16.401Z,1000.56
2018-04-09T02:35:17.782Z,1000.58
2018-04-09T02:36:19.152Z,1000.56
2018-04-09T02:37:20.538Z,1000.58
2018-04-09T02:38:21.924Z,1000.57
2018-04-09T02:39:23.300Z,1000.59
2018-04-09T02:40:24.683Z,1000.55
2018-04-09T02:41:26.055Z,1000.57
2018-04-09T02:42:27.445Z,1000.54
2018-04-09T02:43:28.818Z,1000.52
2018-04-09T02:44:30.192Z,1000.53
2018-04-09T02:45:31.565Z,1000.51
2018-04-09T02:46:32.949Z,1000.52
2018-04-09T02:47:34.317Z,1000.50
2018-04-09T02:48:35.709Z,1000.51
2018-04-09T02:49:37.085Z,1000.51
2018-04-09T02:50:38.466Z,1000.48
2018-04-09T02:51:39.854Z,1000.53
2018-04-09T02:52:41.230Z,1000.48
2018-04-09T02:53:42.602Z,1000.49
2018-04-09T02:54:43.978Z,1000.46
2018-04-09T02:55:45.354Z,1000.47
2018-04-09T02:56:46.733Z,1000.44
2018-04-09T02:57:48.114Z,1000.44
2018-04-09T02:58:49.487Z,1000.41
2018-04-09T02:59:50.868Z,1000.43
2018-04-09T03:00:52.242Z,1000.43
2018-04-09T03:01:53.615Z,1000.41
2018-04-09T03:02:54.994Z,1000.40
2018-04-09T03:03:56.374Z,1000.38
2018-04-09T03:04:57.754Z,1000.40
2018-04-09T03:05:59.138Z,1000.34
2018-04-09T03:07:00.513Z,1000.35
2018-04-09T03:08:01.890Z,1000.31
2018-04-09T03:09:04.225Z,1000.28
2018-04-09T03:10:05.602Z,1000.26
2018-04-09T03:11:06.984Z,1000.28
2018-04-09T03:12:08.357Z,1000.29
2018-04-09T03:13:09.727Z,1000.24
2018-04-09T03:14:12.000Z,1000.31
2018-04-09T03:15:13.369Z,1000.37
2018-04-09T03:16:14.754Z,1000.35
2018-04-09T03:17:16.135Z,1000.38
2018-04-09T03:18:17.509Z,1000.34
2018-04-09T03:19:18.901Z,1000.40
2018-04-09T03:20:20.277Z,1000.37
2018-04-09T03:21:21.706Z,1000.35
2018-04-09T03:22:23.045Z,1000.38
2018-04-09T03:23:24.416Z,1000.37
2018-04-09T03:24:26.559Z,1000.34
2018-04-09T03:25:28.716Z,1000.36
2018-04-09T03:26:30.098Z,1000.36
2018-04-09T03:27:31.482Z,1000.37
2018-04-09T03:28:32.864Z,1000.35
2018-04-09T03:29:34.244Z,1000.35
2018-04-09T03:30:35.629Z,1000.34
2018-04-09T03:31:37.008Z,1000.33
2018-04-09T03:32:38.383Z,1000.33
2018-04-09T03:33:39.760Z,1000.34
2018-04-09T03:34:41.138Z,1000.29
2018-04-09T03:35:42.518Z,1000.28
2018-04-09T03:36:43.891Z,1000.31
2018-04-09T03:37:45.269Z,1000.27
2018-04-09T03:38:46.639Z,1000.25
2018-04-09T03:39:48.017Z,1000.26
2018-04-09T03:40:49.399Z,1000.25
2018-04-09T03:41:50.774Z,1000.28
2018-04-09T03:42:52.161Z,1000.25
2018-04-09T03:43:53.534Z,1000.24
2018-04-09T03:44:54.917Z,1000.22
2018-04-09T03:45:56.295Z,1000.25
2018-04-09T03:46:57.674Z,1000.24
2018-04-09T03:47:59.050Z,1000.24
2018-04-09T03:49:00.421Z,1000.26
2018-04-09T03:50:01.800Z,1000.30
2018-04-09T03:51:03.185Z,1000.31
2018-04-09T03:52:04.563Z,1000.30
2018-04-09T03:53:05.943Z,1000.29
2018-04-09T03:54:07.327Z,1000.27
2018-04-09T03:55:08.697Z,1000.27
2018-04-09T03:56:10.907Z,1000.30
2018-04-09T03:57:12.289Z,1000.35
2018-04-09T03:58:13.688Z,1000.32
2018-04-09T03:59:15.038Z,1000.34
2018-04-09T04:00:16.420Z,1000.35
2018-04-09T04:01:17.789Z,1000.34
2018-04-09T04:02:19.328Z,1000.37
2018-04-09T04:03:20.701Z,1000.37
2018-04-09T04:04:22.082Z,1000.38
2018-04-09T04:05:24.361Z,1000.35
2018-04-09T04:06:25.745Z,1000.33
2018-04-09T04:07:27.122Z,1000.32
2018-04-09T04:08:28.497Z,1000.35
2018-04-09T04:09:29.879Z,1000.31
2018-04-09T04:10:31.262Z,1000.36
2018-04-09T04:11:32.637Z,1000.37
2018-04-09T04:12:34.011Z,1000.37
2018-04-09T04:13:35.391Z,1000.36
2018-04-09T04:14:36.773Z,1000.38
2018-04-09T04:15:38.152Z,1000.40
2018-04-09T04:16:40.111Z,1000.38
2018-04-09T04:17:41.483Z,1000.38
2018-04-09T04:18:43.685Z,1000.38
2018-04-09T04:19:45.066Z,1000.35
2018-04-09T04:20:46.460Z,1000.39
2018-04-09T04:21:47.828Z,1000.39
2018-04-09T04:22:49.215Z,1000.36
2018-04-09T04:23:50.592Z,1000.37
2018-04-09T04:24:52.747Z,1000.39
2018-04-09T04:25:54.125Z,1000.36
2018-04-09T04:26:55.507Z,1000.37
2018-04-09T04:27:56.891Z,1000.34
2018-04-09T04:28:58.270Z,1000.40
2018-04-09T04:29:59.654Z,1000.42
2018-04-09T04:31:01.044Z,1000.44
2018-04-09T04:32:02.428Z,1000.45
2018-04-09T04:33:03.812Z,1000.48
2018-04-09T04:34:05.188Z,1000.49
2018-04-09T04:35:06.579Z,1000.53
2018-04-09T04:36:07.964Z,1000.53
2018-04-09T04:37:09.330Z,1000.46
2018-04-09T04:38:10.712Z,1000.48
2018-04-09T04:39:12.090Z,1000.46
2018-04-09T04:40:13.472Z,1000.45
2018-04-09T04:41:14.848Z,1000.49
2018-04-09T04:42:16.255Z,1000.43
2018-04-09T04:43:17.630Z,1000.48
2018-04-09T04:44:19.011Z,1000.50
2018-04-09T04:45:20.404Z,1000.51
2018-04-09T04:46:21.779Z,1000.50
2018-04-09T04:47:23.155Z,1000.52
2018-04-09T04:48:25.027Z,1000.54
2018-04-09T04:49:26.407Z,1000.56
2018-04-09T04:50:27.789Z,1000.57
2018-04-09T04:51:29.173Z,1000.58
2018-04-09T04:52:30.553Z,1000.57
2018-04-09T04:53:31.937Z,1000.54
2018-04-09T04:54:33.319Z,1000.53
2018-04-09T04:55:34.707Z,1000.52
2018-04-09T04:56:36.081Z,1000.50
2018-04-09T04:57:37.456Z,1000.52
2018-04-09T04:58:38.838Z,1000.55
2018-04-09T04:59:40.222Z,1000.52
2018-04-09T05:00:41.616Z,1000.58
2018-04-09T05:01:43.000Z,1000.57
2018-04-09T05:02:44.386Z,1000.58
2018-04-09T05:03:45.774Z,1000.56
2018-04-09T05:04:47.166Z,1000.61
2018-04-09T05:05:48.533Z,1000.59
2018-04-09T05:06:49.921Z,1000.59
2018-04-09T05:07:51.297Z,1000.59
2018-04-09T05:08:52.689Z,1000.58
2018-04-09T05:09:54.071Z,1000.56
2018-04-09T05:10:55.456Z,1000.58
2018-04-09T05:11:56.836Z,1000.58
2018-04-09T05:12:58.219Z,1000.60
2018-04-09T05:13:59.602Z,1000.59
2018-04-09T05:15:00.987Z,1000.59
2018-04-09T05:16:02.394Z,1000.57
2018-04-09T05:17:04.691Z,1000.55
2018-04-09T05:18:06.067Z,1000.54
2018-04-09T05:19:07.455Z,1000.53
2018-04-09T05:20:08.838Z,1000.53
2018-04-09T05:21:10.221Z,1000.56
2018-04-09T05:22:11.596Z,1000.55
2018-04-09T05:23:12.981Z,1000.57
2018-04-09T05:24:14.372Z,1000.57
2018-04-09T05:25:15.743Z,1000.60
2018-04-09T05:26:17.137Z,1000.62
2018-04-09T05:27:18.523Z,1000.64
2018-04-09T05:28:19.910Z,1000.64
2018-04-09T05:29:21.286Z,1000.68
2018-04-09T05:30:22.671Z,1000.70
2018-04-09T05:31:24.677Z,1000.74
2018-04-09T05:32:26.053Z,1000.81
2018-04-09T05:33:27.440Z,1000.78
2018-04-09T05:34:28.821Z,1000.80
2018-04-09T05:35:30.208Z,1000.83
2018-04-09T05:36:31.583Z,1000.79
2018-04-09T05:37:32.967Z,1000.80
2018-04-09T05:38:34.352Z,1000.80
2018-04-09T05:39:35.731Z,1000.81
2018-04-09T05:40:37.105Z,1000.83
2018-04-09T05:41:38.490Z,1000.85
2018-04-09T05:42:39.875Z,1000.84
2018-04-09T05:43:41.255Z,1000.84
2018-04-09T05:44:42.650Z,1000.82
2018-04-09T05:45:44.030Z,1000.80
2018-04-09T05:46:45.417Z,1000.76
2018-04-09T05:47:46.795Z,1000.81
2018-04-09T05:48:48.179Z,1000.79
2018-04-09T05:49:49.559Z,1000.79
2018-04-09T05:50:50.937Z,1000.81
2018-04-09T05:51:52.328Z,1000.82
2018-04-09T05:52:53.778Z,1000.83
2018-04-09T05:53:55.097Z,1000.86
2018-04-09T05:54:56.476Z,1000.87
2018-04-09T05:55:57.870Z,1000.86
2018-04-09T05:56:59.252Z,1000.84
2018-04-09T05:58:00.631Z,1000.87
2018-04-09T05:59:02.024Z,1000.87
2018-04-09T06:00:03.409Z,1000.90
2018-04-09T06:01:04.800Z,1000.87
2018-04-09T06:02:06.182Z,1000.88
2018-04-09T06:03:08.190Z,1000.87
2018-04-09T06:04:09.579Z,1000.88
2018-04-09T06:05:10.977Z,1000.84
2018-04-09T06:06:12.362Z,1000.89
2018-04-09T06:07:13.748Z,1000.89
2018-04-09T06:08:15.132Z,1000.90
2018-04-09T06:09:16.520Z,1000.90
2018-04-09T06:10:17.903Z,1000.94
2018-04-09T06:11:19.292Z,1000.98
2018-04-09T06:12:20.682Z,1000.99
2018-04-09T06:13:22.060Z,1001.06
2018-04-09T06:14:23.447Z,1001.06
2018-04-09T06:15:24.848Z,1001.08
2018-04-09T06:16:26.227Z,1001.12
2018-04-09T06:17:27.617Z,1001.18
2018-04-09T06:18:29.036Z,1001.18
2018-04-09T06:19:30.391Z,1001.19
2018-04-09T06:20:31.784Z,1001.17
2018-04-09T06:21:33.158Z,1001.15
2018-04-09T06:22:34.551Z,1001.16
2018-04-09T06:23:35.979Z,1001.18
2018-04-09T06:24:37.369Z,1001.13
2018-04-09T06:25:38.768Z,1001.09
2018-04-09T06:26:40.180Z,1001.10
2018-04-09T06:27:41.540Z,1001.08
2018-04-09T06:28:42.929Z,1001.13
2018-04-09T06:29:44.324Z,1001.14
2018-04-09T06:30:45.707Z,1001.10
2018-04-09T06:31:47.099Z,1001.10
2018-04-09T06:32:48.492Z,1001.08
2018-04-09T06:33:49.888Z,1001.11
2018-04-09T06:34:51.284Z,1001.09
2018-04-09T06:35:52.676Z,1001.08
2018-04-09T06:36:54.068Z,1001.08
2018-04-09T06:37:55.468Z,1001.02
2018-04-09T06:38:56.850Z,1001.00
2018-04-09T06:39:58.891Z,1001.05
2018-04-09T06:41:00.282Z,1001.06
2018-04-09T06:42:01.674Z,1001.07
2018-04-09T06:43:03.063Z,1001.07
2018-04-09T06:44:04.451Z,1001.03
2018-04-09T06:45:05.844Z,1000.99
2018-04-09T06:46:07.239Z,1000.94
2018-04-09T06:47:08.615Z,1000.93
2018-04-09T06:48:10.004Z,1000.96
2018-04-09T06:49:11.397Z,1000.93
2018-04-09T06:50:12.788Z,1000.94
2018-04-09T06:51:14.185Z,1000.93
2018-04-09T06:52:15.579Z,1000.91
2018-04-09T06:53:16.968Z,1000.90
2018-04-09T06:54:18.371Z,1000.92
2018-04-09T06:55:19.754Z,1000.95
2018-04-09T06:56:21.145Z,1000.99
2018-04-09T06:57:22.539Z,1001.03
2018-04-09T06:58:23.931Z,1001.03
2018-04-09T06:59:25.314Z,1001.04
2018-04-09T07:00:26.705Z,1001.06
2018-04-09T07:01:28.097Z,1001.08
2018-04-09T07:02:29.492Z,1001.07
2018-04-09T07:03:30.877Z,1001.04
2018-04-09T07:04:32.271Z,1001.05
2018-04-09T07:05:33.654Z,1001.08
2018-04-09T07:06:35.063Z,1001.08
2018-04-09T07:07:36.456Z,1001.11
2018-04-09T07:08:37.847Z,1001.08
2018-04-09T07:09:39.238Z,1001.10
2018-04-09T07:10:41.601Z,1001.13
2018-04-09T07:11:43.000Z,1001.15
2018-04-09T07:12:44.391Z,1001.18
2018-04-09T07:13:45.789Z,1001.20
2018-04-09T07:14:47.181Z,1001.16
2018-04-09T07:15:48.620Z,1001.18
2018-04-09T07:16:49.964Z,1001.18
2018-04-09T07:17:51.365Z,1001.22
2018-04-09T07:18:52.753Z,1001.25
2018-04-09T07:19:54.156Z,1001.29
2018-04-09T07:20:55.540Z,1001.29
2018-04-09T07:21:56.944Z,1001.31
2018-04-09T07:22:58.330Z,1001.33
2018-04-09T07:23:59.720Z,1001.40
2018-04-09T07:25:01.121Z,1001.41
2018-04-09T07:26:02.508Z,1001.44
2018-04-09T07:27:03.906Z,1001.48
2018-04-09T07:28:06.051Z,1001.48
2018-04-09T07:29:07.447Z,1001.50
2018-04-09T07:30:08.840Z,1002.40
2018-04-09T07:31:10.290Z,1003.48
2018-04-09T07:32:11.640Z,1003.70
2018-04-09T07:33:13.038Z,1003.75
2018-04-09T07:34:14.434Z,1003.80
2018-04-09T07:35:15.836Z,1003.91
2018-04-09T07:36:18.152Z,1003.93
2018-04-09T07:37:19.544Z,1003.86
2018-04-09T07:38:20.981Z,1003.86
2018-04-09T07:39:22.346Z,1003.78
2018-04-09T07:40:23.737Z,1003.72
2018-04-09T07:41:25.137Z,1003.62
2018-04-09T07:42:26.535Z,1003.32
2018-04-09T07:43:27.941Z,1002.37
2018-04-09T07:44:29.343Z,1001.49
2018-04-09T07:45:30.735Z,1001.36
2018-04-09T07:46:32.138Z,1001.30
2018-04-09T07:47:33.534Z,1001.34
2018-04-09T07:48:34.933Z,1001.40
2018-04-09T07:49:36.338Z,1001.38
2018-04-09T07:50:37.736Z,1001.40
2018-04-09T07:51:39.151Z,1001.38
2018-04-09T07:52:40.550Z,1001.36
2018-04-09T07:53:41.956Z,1001.37
2018-04-09T07:54:43.349Z,1001.34
2018-04-09T07:55:44.755Z,1001.33
2018-04-09T07:56:46.162Z,1001.35
2018-04-09T07:57:47.558Z,1001.31
2018-04-09T07:58:48.952Z,1001.34
2018-04-09T07:59:50.352Z,1001.44
2018-04-09T08:00:52.366Z,1001.48
2018-04-09T08:01:53.811Z,1001.57
2018-04-09T08:02:55.170Z,1001.65
2018-04-09T08:03:56.577Z,1001.77
2018-04-09T08:04:58.656Z,1002.41
2018-04-09T08:06:00.058Z,1004.46
2018-04-09T08:07:01.463Z,1004.96
2018-04-09T08:08:02.857Z,1005.10
2018-04-09T08:09:04.266Z,1005.16
2018-04-09T08:10:05.672Z,1004.94
2018-04-09T08:11:07.073Z,1004.67
2018-04-09T08:12:08.471Z,1005.04
2018-04-09T08:13:09.906Z,1005.02
2018-04-09T08:14:11.241Z,1004.35
2018-04-09T08:15:12.643Z,1004.19
2018-04-09T08:16:14.045Z,1004.31
2018-04-09T08:17:15.437Z,1004.24
2018-04-09T08:18:16.837Z,1004.20
2018-04-09T08:19:18.244Z,1004.02
2018-04-09T08:20:19.651Z,1003.92
2018-04-09T08:21:21.040Z,1004.07
2018-04-09T08:22:22.448Z,1004.03
2018-04-09T08:23:23.850Z,1004.00
2018-04-09T08:24:25.250Z,1003.84
2018-04-09T08:25:26.652Z,1003.96
2018-04-09T08:26:28.060Z,1003.82
2018-04-09T08:27:29.465Z,1003.42
2018-04-09T08:28:30.868Z,1003.23
2018-04-09T08:29:32.268Z,1003.31
2018-04-09T08:30:33.682Z,1003.29
2018-04-09T08:31:35.078Z,1003.37
2018-04-09T08:32:36.489Z,1003.53
2018-04-09T08:33:37.895Z,1003.81
2018-04-09T08:34:39.313Z,1003.95
2018-04-09T08:35:40.712Z,1003.88
2018-04-09T08:36:42.115Z,1003.85
2018-04-09T08:37:43.521Z,1003.82
2018-04-09T08:38:45.435Z,1003.91
2018-04-09T08:39:46.851Z,1003.95
2018-04-09T08:40:48.316Z,1003.99
2018-04-09T08:41:49.662Z,1004.08
2018-04-09T08:42:51.069Z,1004.26
2018-04-09T08:43:52.480Z,1004.32
2018-04-09T08:44:53.884Z,1004.36
2018-04-09T08:45:55.295Z,1004.30
2018-04-09T08:46:56.706Z,1004.37
2018-04-09T08:47:58.124Z,1004.57
2018-04-09T08:48:59.522Z,1004.95
2018-04-09T08:50:00.936Z,1005.19
2018-04-09T08:51:02.345Z,1005.33
2018-04-09T08:52:03.756Z,1005.60
2018-04-09T08:53:05.169Z,1005.82
2018-04-09T08:54:06.583Z,1006.01
2018-04-09T08:55:07.994Z,1006.23
2018-04-09T08:56:09.402Z,1006.59
2018-04-09T08:57:10.813Z,1006.75
2018-04-09T08:58:12.221Z,1006.87
2018-04-09T08:59:13.644Z,1007.10
2018-04-09T09:00:15.054Z,1007.31
2018-04-09T09:01:16.470Z,1007.39
2018-04-09T09:02:17.889Z,1007.67
2018-04-09T09:03:19.297Z,1008.06
2018-04-09T09:04:20.714Z,1007.87
2018-04-09T09:05:22.130Z,1007.91
2018-04-09T09:06:23.539Z,1007.66
2018-04-09T09:07:24.951Z,1007.78
2018-04-09T09:08:26.369Z,1008.34
2018-04-09T09:09:27.773Z,1009.01
2018-04-09T09:10:29.191Z,1009.19
2018-04-09T09:11:30.616Z,1009.00
2018-04-09T09:12:32.026Z,1009.29
2018-04-09T09:13:33.444Z,1001.33
2018-04-09T09:14:34.863Z,1001.37
2018-04-09T09:15:36.266Z,1001.32
2018-04-09T09:16:37.686Z,1001.33
2018-04-09T09:17:39.090Z,1001.33
2018-04-09T09:18:40.495Z,1001.32
2018-04-09T09:19:41.902Z,1001.04
2018-04-09T09:20:43.311Z,1001.24
2018-04-09T09:21:44.724Z,1001.26
2018-04-09T09:22:46.126Z,1001.29
2018-04-09T09:23:47.541Z,1001.26
2018-04-09T09:24:48.934Z,1001.27
2018-04-09T09:25:50.338Z,1001.23
2018-04-09T09:26:51.750Z,1001.29
2018-04-09T09:27:53.151Z,1001.24
2018-04-09T09:28:54.558Z,1001.08
2018-04-09T09:29:55.983Z,1001.00
2018-04-09T09:30:57.389Z,1000.98
2018-04-09T09:31:58.792Z,1001.07
2018-04-09T09:33:00.193Z,1001.31
2018-04-09T09:34:01.598Z,1001.34
2018-04-09T09:35:03.001Z,1001.32
2018-04-09T09:36:04.405Z,1001.29
2018-04-09T09:37:05.802Z,1001.33
2018-04-09T09:38:07.208Z,1001.31
2018-04-09T09:39:08.605Z,1001.29
2018-04-09T09:40:10.589Z,1001.04
2018-04-09T09:41:12.002Z,1001.09
2018-04-09T09:42:13.408Z,1001.04
2018-04-09T09:43:14.809Z,1001.13
2018-04-09T09:44:16.208Z,1001.11
2018-04-09T09:45:17.613Z,1000.99
2018-04-09T09:46:19.017Z,1001.00
2018-04-09T09:47:20.414Z,1000.90
2018-04-09T09:48:21.818Z,1000.89
2018-04-09T09:49:23.275Z,1000.87
2018-04-09T09:50:24.587Z,1000.88
2018-04-09T09:51:25.983Z,1000.86
2018-04-09T09:52:27.881Z,1000.78
2018-04-09T09:53:29.286Z,1000.80
2018-04-09T09:54:30.679Z,1000.85
2018-04-09T09:55:32.087Z,1000.88
2018-04-09T09:56:33.496Z,1000.81
2018-04-09T09:57:34.888Z,1000.84
2018-04-09T09:58:36.284Z,1000.84
2018-04-09T09:59:37.694Z,1000.86
2018-04-09T10:00:39.091Z,1000.83
2018-04-09T10:01:40.521Z,1000.85
2018-04-09T10:02:41.889Z,1000.84
2018-04-09T10:03:43.292Z,1000.81
2018-04-09T10:04:44.693Z,1000.79
2018-04-09T10:05:46.091Z,1000.80
2018-04-09T10:06:47.490Z,1000.78
2018-04-09T10:07:48.923Z,1000.74
2018-04-09T10:08:50.286Z,1000.68
2018-04-09T10:09:51.686Z,1000.68
2018-04-09T10:10:53.082Z,1000.72
2018-04-09T10:11:54.492Z,1000.66
2018-04-09T10:12:55.896Z,1000.65
2018-04-09T10:13:57.289Z,1000.62
2018-04-09T10:14:58.708Z,1000.66
2018-04-09T10:16:00.100Z,1000.67
2018-04-09T10:17:01.505Z,1000.67
2018-04-09T10:18:02.905Z,1000.64
2018-04-09T10:19:04.305Z,1000.67
2018-04-09T10:20:05.708Z,1000.63
2018-04-09T10:21:07.105Z,1000.67
2018-04-09T10:22:08.513Z,1000.67
2018-04-09T10:23:09.913Z,1000.64
2018-04-09T10:24:11.309Z,1000.62
2018-04-09T10:25:12.708Z,1000.58
2018-04-09T10:26:14.110Z,1000.60
2018-04-09T10:27:15.508Z,1000.59
2018-04-09T10:28:16.917Z,1000.61
2018-04-09T10:29:18.320Z,1000.64
2018-04-09T10:30:19.716Z,1000.60
2018-04-09T10:31:21.119Z,1000.62
2018-04-09T10:32:22.516Z,1000.65
2018-04-09T10:33:23.935Z,1000.65
2018-04-09T10:34:25.383Z,1000.64
2018-04-09T10:35:26.731Z,1000.65
2018-04-09T10:36:28.136Z,1000.66
2018-04-09T10:37:29.539Z,1000.63
2018-04-09T10:38:30.940Z,1000.60
2018-04-09T10:39:32.331Z,1000.62
2018-04-09T10:40:33.727Z,1000.64
2018-04-09T10:41:35.131Z,1000.65
2018-04-09T10:42:37.482Z,1000.69
2018-04-09T10:43:38.883Z,1000.63
2018-04-09T10:44:40.279Z,1000.63
2018-04-09T10:45:41.678Z,1000.64
2018-04-09T10:46:43.078Z,1000.62
2018-04-09T10:47:44.484Z,1000.60
2018-04-09T10:48:46.006Z,1000.57
2018-04-09T10:49:47.402Z,1000.53
2018-04-09T10:50:48.796Z,1000.54
2018-04-09T10:51:50.358Z,1000.51
2018-04-09T10:52:51.757Z,1000.52
2018-04-09T10:53:53.170Z,1000.47
2018-04-09T10:54:54.565Z,1000.49
2018-04-09T10:55:55.965Z,1000.47
2018-04-09T10:56:57.370Z,1000.47
2018-04-09T10:57:58.768Z,1000.33
2018-04-09T10:59:00.169Z,1000.72
2018-04-09T11:00:01.573Z,1000.89
2018-04-09T11:01:02.979Z,1000.84
2018-04-09T11:02:04.375Z,1000.83
2018-04-09T11:03:05.781Z,1000.86
2018-04-09T11:04:07.220Z,1000.71
2018-04-09T11:05:08.555Z,1000.63
2018-04-09T11:06:09.945Z,1000.53
2018-04-09T11:07:11.349Z,1000.52
2018-04-09T11:08:12.749Z,1000.50
2018-04-09T11:09:14.143Z,1000.43
2018-04-09T11:10:15.549Z,1000.44
